Perham, Minnesota
Current Conditions -  °F | °C
As of 5:14 AM on Thursday 23 Oct 2014 (Local Time) from KADC Reporting Station
Drizzle Drizzle  
Wind Chill: 48°   Ceiling: 100
Heat Index: 48°   Visibility: 0.25mi
Dew Point: 46°   Wind: 3mph
Humidity: 93%   Direction: 210°SSW
Pressure: 29.92"   Gusts: NA
Location:  46.59°N, 95.57°W
Report Text: KADC 231014Z AUTO 21003KT 1/4SM -DZ OVC001 09/08 A2992 RMK AO2
Loading
Personal Weather Stations






























Interactive Weather Map
Tropical Storm Tracking
New forecast layout! Learn more

10-Day Weather Forecast

Advertisements
Track Severe Weather on mobile